KSLE

McNary Field Airport

Salem, Oregon, USA
METAR KSLE 181356Z AUTO 18008KT 10SM SCT040 07/03 A3014 RMK AO2 SLP206 T00670028
Observed Flight Rules
Jan-18 @ 13:56 UTC (31 minutes ago) Visual Flight Rules
Wind Visibility Clouds
180° at 8 knots 10 miles
  • Scattered at 4,000' AGL
Temperatures Readings
Current 7°C / 45°F
Dewpoint 3°C / 37°F
Humidity 76%
Altimeter 30.14" Hg
Pressure 1020.6 hPa
Elevation 59
METAR KSLE 181356Z AUTO 18008KT 10SM SCT040 07/03 A3014 RMK AO2 SLP206 T00670028
Observed Flight Rules
Jan-18 @ 13:56 UTC
(31 minutes ago)
VFR
Wind Visibility
180° at 8 knots 10 miles
Clouds
  • Scattered at 4,000' AGL
Temperature Dewpoint
7°C / 45°F 3°C / 37°F
Humidity Altimeter Pressure
76% 30.14" Hg 1020.6 hPa